sensor_id;sensor_type;location;lat;lon;timestamp;pressure;altitude;pressure_sealevel;temperature;humidity
7888;BME280;3989;48.810;9.208;2023-04-01T00:01:48;97455.97;;;8.05;100.00
7888;BME280;3989;48.810;9.208;2023-04-01T00:04:16;97251.53;;;6.81;100.00
7888;BME280;3989;48.810;9.208;2023-04-01T00:06:42;97393.09;;;7.78;100.00
7888;BME280;3989;48.810;9.208;2023-04-01T00:09:11;97462.63;;;8.22;100.00
7888;BME280;3989;48.810;9.208;2023-04-01T00:11:37;97371.19;;;7.76;100.00
7888;BME280;3989;48.810;9.208;2023-04-01T00:14:05;97440.88;;;8.12;100.00
7888;BME280;3989;48.810;9.208;2023-04-01T00:16:32;97467.91;;;8.50;100.00
7888;BME280;3989;48.810;9.208;2023-04-01T00:18:58;97447.63;;;8.42;100.00
7888;BME280;3989;48.810;9.208;2023-04-01T00:21:26;97401.88;;;8.19;100.00
7888;BME280;3989;48.810;9.208;2023-04-01T00:23:52;97454.06;;;8.61;100.00
7888;BME280;3989;48.810;9.208;2023-04-01T00:26:21;97455.69;;;8.62;100.00
7888;BME280;3989;48.810;9.208;2023-04-01T00:28:48;97458.31;;;8.56;100.00
7888;BME280;3989;48.810;9.208;2023-04-01T00:31:14;97458.28;;;8.49;100.00
7888;BME280;3989;48.810;9.208;2023-04-01T00:33:41;97463.59;;;8.42;100.00
7888;BME280;3989;48.810;9.208;2023-04-01T00:36:09;97423.75;;;8.21;100.00
7888;BME280;3989;48.810;9.208;2023-04-01T00:38:36;97451.88;;;8.37;100.00
7888;BME280;3989;48.810;9.208;2023-04-01T00:41:04;97396.66;;;7.91;100.00
7888;BME280;3989;48.810;9.208;2023-04-01T00:43:33;97461.91;;;8.35;100.00
7888;BME280;3989;48.810;9.208;2023-04-01T00:45:59;97464.16;;;8.38;100.00
7888;BME280;3989;48.810;9.208;2023-04-01T00:48:30;97378.22;;;7.90;100.00
7888;BME280;3989;48.810;9.208;2023-04-01T00:51:00;97447.63;;;8.42;100.00
7888;BME280;3989;48.810;9.208;2023-04-01T00:53:28;97463.06;;;8.67;100.00
7888;BME280;3989;48.810;9.208;2023-04-01T00:55:59;97425.16;;;8.45;100.00
7888;BME280;3989;48.810;9.208;2023-04-01T00:58:29;97472.50;;;8.76;100.00
7888;BME280;3989;48.810;9.208;2023-04-01T01:00:59;97445.84;;;8.63;100.00
7888;BME280;3989;48.810;9.208;2023-04-01T01:03:27;97471.50;;;8.77;100.00
7888;BME280;3989;48.810;9.208;2023-04-01T01:06:06;97468.66;;;8.78;100.00
7888;BME280;3989;48.810;9.208;2023-04-01T01:08:43;97446.28;;;8.66;100.00
7888;BME280;3989;48.810;9.208;2023-04-01T01:11:14;97424.78;;;8.55;100.00
7888;BME280;3989;48.810;9.208;2023-04-01T01:13:50;97463.75;;;8.82;100.00
7888;BME280;3989;48.810;9.208;2023-04-01T01:16:24;97464.53;;;8.76;100.00
7888;BME280;3989;48.810;9.208;2023-04-01T01:18:55;97457.16;;;8.71;100.00
7888;BME280;3989;48.810;9.208;2023-04-01T01:21:48;97462.06;;;8.68;100.00
7888;BME280;3989;48.810;9.208;2023-04-01T01:27:20;97450.16;;;8.64;100.00
7888;BME280;3989;48.810;9.208;2023-04-01T01:30:27;97457.97;;;8.65;100.00
7888;BME280;3989;48.810;9.208;2023-04-01T01:33:16;97406.88;;;8.29;100.00
7888;BME280;3989;48.810;9.208;2023-04-01T01:35:49;97461.22;;;8.67;100.00
7888;BME280;3989;48.810;9.208;2023-04-01T01:38:18;97374.69;;;8.11;100.00
7888;BME280;3989;48.810;9.208;2023-04-01T01:40:48;97454.06;;;8.61;100.00
7888;BME280;3989;48.810;9.208;2023-04-01T01:43:21;97456.72;;;8.68;100.00
7888;BME280;3989;48.810;9.208;2023-04-01T01:45:52;97448.75;;;8.68;100.00
7888;BME280;3989;48.810;9.208;2023-04-01T01:48:20;97385.38;;;8.24;100.00
7888;BME280;3989;48.810;9.208;2023-04-01T01:50:48;97470.00;;;8.61;100.00
7888;BME280;3989;48.810;9.208;2023-04-01T01:53:16;97441.50;;;8.42;100.00
7888;BME280;3989;48.810;9.208;2023-04-01T01:55:45;97464.00;;;8.46;100.00
7888;BME280;3989;48.810;9.208;2023-04-01T01:58:13;97452.66;;;8.31;100.00
7888;BME280;3989;48.810;9.208;2023-04-01T02:00:44;97448.00;;;8.33;100.00
7888;BME280;3989;48.810;9.208;2023-04-01T02:03:13;97459.19;;;8.28;100.00
7888;BME280;3989;48.810;9.208;2023-04-01T02:05:41;97448.31;;;8.23;100.00
7888;BME280;3989;48.810;9.208;2023-04-01T02:08:13;97453.19;;;8.20;100.00
7888;BME280;3989;48.810;9.208;2023-04-01T02:10:43;97449.09;;;8.17;100.00
7888;BME280;3989;48.810;9.208;2023-04-01T02:13:17;97451.13;;;8.15;100.00
7888;BME280;3989;48.810;9.208;2023-04-01T02:15:47;97430.13;;;7.92;100.00
7888;BME280;3989;48.810;9.208;2023-04-01T02:18:18;97454.38;;;8.11;100.00
7888;BME280;3989;48.810;9.208;2023-04-01T02:20:45;97457.66;;;8.13;100.00
7888;BME280;3989;48.810;9.208;2023-04-01T02:23:14;97470.94;;;8.13;100.00
7888;BME280;3989;48.810;9.208;2023-04-01T02:25:41;97467.88;;;8.16;100.00
7888;BME280;3989;48.810;9.208;2023-04-01T02:28:10;97466.44;;;8.13;100.00
7888;BME280;3989;48.810;9.208;2023-04-01T02:30:39;97457.44;;;8.08;100.00
7888;BME280;3989;48.810;9.208;2023-04-01T02:33:07;97476.66;;;8.10;100.00
7888;BME280;3989;48.810;9.208;2023-04-01T02:35:36;97443.84;;;7.96;100.00
7888;BME280;3989;48.810;9.208;2023-04-01T02:38:03;97458.84;;;8.04;100.00
7888;BME280;3989;48.810;9.208;2023-04-01T02:40:43;97414.84;;;7.67;100.00
7888;BME280;3989;48.810;9.208;2023-04-01T02:43:10;97455.25;;;7.90;100.00
7888;BME280;3989;48.810;9.208;2023-04-01T02:45:36;97452.78;;;7.88;100.00
7888;BME280;3989;48.810;9.208;2023-04-01T02:48:03;97416.19;;;7.56;100.00
7888;BME280;3989;48.810;9.208;2023-04-01T02:50:30;97466.00;;;7.75;100.00
7888;BME280;3989;48.810;9.208;2023-04-01T02:52:57;97417.16;;;7.49;100.00
7888;BME280;3989;48.810;9.208;2023-04-01T02:55:23;97448.78;;;7.71;100.00
7888;BME280;3989;48.810;9.208;2023-04-01T02:57:51;97443.63;;;7.63;100.00
7888;BME280;3989;48.810;9.208;2023-04-01T03:00:18;97385.78;;;7.31;100.00
7888;BME280;3989;48.810;9.208;2023-04-01T03:02:45;97455.94;;;7.71;100.00
7888;BME280;3989;48.810;9.208;2023-04-01T03:05:12;97419.19;;;7.47;100.00
7888;BME280;3989;48.810;9.208;2023-04-01T03:07:38;97437.97;;;7.45;100.00
7888;BME280;3989;48.810;9.208;2023-04-01T03:10:06;97431.25;;;7.49;100.00
7888;BME280;3989;48.810;9.208;2023-04-01T03:12:33;97459.69;;;7.83;100.00
7888;BME280;3989;48.810;9.208;2023-04-01T03:15:01;97410.75;;;7.64;100.00
7888;BME280;3989;48.810;9.208;2023-04-01T03:17:28;97271.88;;;6.74;100.00
7888;BME280;3989;48.810;9.208;2023-04-01T03:19:54;97338.13;;;7.16;100.00
7888;BME280;3989;48.810;9.208;2023-04-01T03:22:21;97385.44;;;7.40;100.00
7888;BME280;3989;48.810;9.208;2023-04-01T03:24:48;97445.09;;;7.72;100.00
7888;BME280;3989;48.810;9.208;2023-04-01T03:27:15;97411.47;;;7.52;100.00
7888;BME280;3989;48.810;9.208;2023-04-01T03:29:42;97400.13;;;7.36;100.00
7888;BME280;3989;48.810;9.208;2023-04-01T03:32:10;97470.38;;;7.62;100.00
7888;BME280;3989;48.810;9.208;2023-04-01T03:34:36;97437.53;;;7.42;100.00
7888;BME280;3989;48.810;9.208;2023-04-01T03:37:03;97406.56;;;7.27;100.00
7888;BME280;3989;48.810;9.208;2023-04-01T03:39:31;97442.81;;;7.42;100.00
7888;BME280;3989;48.810;9.208;2023-04-01T03:41:57;97437.19;;;7.51;100.00
7888;BME280;3989;48.810;9.208;2023-04-01T03:44:24;97316.00;;;6.81;100.00
7888;BME280;3989;48.810;9.208;2023-04-01T03:46:50;97419.19;;;7.47;100.00
7888;BME280;3989;48.810;9.208;2023-04-01T03:49:19;97358.22;;;7.04;100.00
7888;BME280;3989;48.810;9.208;2023-04-01T03:51:45;97337.34;;;6.95;100.00
7888;BME280;3989;48.810;9.208;2023-04-01T03:54:12;97454.53;;;7.75;100.00
7888;BME280;3989;48.810;9.208;2023-04-01T03:56:39;97460.69;;;7.75;100.00
7888;BME280;3989;48.810;9.208;2023-04-01T03:59:07;97404.03;;;7.40;100.00
7888;BME280;3989;48.810;9.208;2023-04-01T04:01:33;97245.63;;;6.37;100.00
7888;BME280;3989;48.810;9.208;2023-04-01T04:04:01;97448.25;;;7.55;100.00
7888;BME280;3989;48.810;9.208;2023-04-01T04:06:29;97440.47;;;7.53;100.00
7888;BME280;3989;48.810;9.208;2023-04-01T04:08:55;97433.72;;;7.51;100.00
7888;BME280;3989;48.810;9.208;2023-04-01T04:11:22;97446.75;;;7.46;100.00
7888;BME280;3989;48.810;9.208;2023-04-01T04:13:49;97440.78;;;7.44;100.00
7888;BME280;3989;48.810;9.208;2023-04-01T04:16:17;97421.59;;;7.42;100.00
7888;BME280;3989;48.810;9.208;2023-04-01T04:18:44;97452.78;;;7.61;100.00
7888;BME280;3989;48.810;9.208;2023-04-01T04:21:12;97448.97;;;7.70;100.00
7888;BME280;3989;48.810;9.208;2023-04-01T04:23:40;97450.84;;;7.76;100.00
7888;BME280;3989;48.810;9.208;2023-04-01T04:26:09;97434.31;;;7.74;100.00
7888;BME280;3989;48.810;9.208;2023-04-01T04:28:36;97432.44;;;7.68;100.00
7888;BME280;3989;48.810;9.208;2023-04-01T04:31:03;97416.28;;;7.42;100.00
7888;BME280;3989;48.810;9.208;2023-04-01T04:33:31;97412.09;;;7.26;100.00
7888;BME280;3989;48.810;9.208;2023-04-01T04:35:58;97405.06;;;7.18;100.00
7888;BME280;3989;48.810;9.208;2023-04-01T04:38:25;97450.13;;;7.33;100.00
7888;BME280;3989;48.810;9.208;2023-04-01T04:40:54;97428.94;;;7.18;100.00
7888;BME280;3989;48.810;9.208;2023-04-01T04:43:20;97443.47;;;7.22;100.00
7888;BME280;3989;48.810;9.208;2023-04-01T04:45:47;97417.66;;;7.10;100.00
7888;BME280;3989;48.810;9.208;2023-04-01T04:48:15;97438.16;;;7.22;100.00
7888;BME280;3989;48.810;9.208;2023-04-01T04:50:44;97322.19;;;6.67;100.00
7888;BME280;3989;48.810;9.208;2023-04-01T04:53:11;97439.22;;;7.28;100.00
7888;BME280;3989;48.810;9.208;2023-04-01T04:55:42;97413.78;;;7.12;100.00
7888;BME280;3989;48.810;9.208;2023-04-01T04:58:10;97396.81;;;7.07;100.00
7888;BME280;3989;48.810;9.208;2023-04-01T05:00:37;97397.03;;;7.12;100.00
7888;BME280;3989;48.810;9.208;2023-04-01T05:03:04;97429.06;;;7.31;100.00
7888;BME280;3989;48.810;9.208;2023-04-01T05:05:30;97406.59;;;7.06;100.00
7888;BME280;3989;48.810;9.208;2023-04-01T05:07:57;97403.25;;;6.98;100.00
7888;BME280;3989;48.810;9.208;2023-04-01T05:10:24;97429.75;;;7.19;100.00
7888;BME280;3989;48.810;9.208;2023-04-01T05:12:51;97436.13;;;7.24;100.00
7888;BME280;3989;48.810;9.208;2023-04-01T05:15:19;97416.88;;;7.16;100.00
7888;BME280;3989;48.810;9.208;2023-04-01T05:17:46;97398.06;;;7.11;100.00
7888;BME280;3989;48.810;9.208;2023-04-01T05:20:14;97420.41;;;7.23;100.00
7888;BME280;3989;48.810;9.208;2023-04-01T05:22:41;97404.19;;;7.11;100.00
7888;BME280;3989;48.810;9.208;2023-04-01T05:25:09;97423.53;;;7.26;100.00
7888;BME280;3989;48.810;9.208;2023-04-01T05:27:36;97438.22;;;7.29;100.00
7888;BME280;3989;48.810;9.208;2023-04-01T05:30:03;97385.06;;;7.16;100.00
7888;BME280;3989;48.810;9.208;2023-04-01T05:32:32;97374.06;;;7.19;100.00
7888;BME280;3989;48.810;9.208;2023-04-01T05:34:58;97396.94;;;7.48;100.00
7888;BME280;3989;48.810;9.208;2023-04-01T05:37:25;97385.16;;;7.57;100.00
7888;BME280;3989;48.810;9.208;2023-04-01T05:39:51;97423.19;;;7.91;100.00
7888;BME280;3989;48.810;9.208;2023-04-01T05:42:18;97381.84;;;7.82;100.00
7888;BME280;3989;48.810;9.208;2023-04-01T05:44:44;97374.13;;;7.87;100.00
7888;BME280;3989;48.810;9.208;2023-04-01T05:47:11;97383.75;;;7.95;100.00
7888;BME280;3989;48.810;9.208;2023-04-01T05:49:39;97375.00;;;7.95;100.00
7888;BME280;3989;48.810;9.208;2023-04-01T05:52:06;97409.06;;;8.25;100.00
7888;BME280;3989;48.810;9.208;2023-04-01T05:54:33;97404.81;;;8.31;100.00
7888;BME280;3989;48.810;9.208;2023-04-01T05:57:00;97289.63;;;7.63;100.00
7888;BME280;3989;48.810;9.208;2023-04-01T05:59:26;97402.41;;;8.36;100.00
7888;BME280;3989;48.810;9.208;2023-04-01T06:01:53;97379.75;;;8.40;100.00
7888;BME280;3989;48.810;9.208;2023-04-01T06:04:20;97402.50;;;8.62;100.00
7888;BME280;3989;48.810;9.208;2023-04-01T06:06:48;97370.16;;;8.52;100.00
7888;BME280;3989;48.810;9.208;2023-04-01T06:09:16;97328.63;;;8.44;100.00
7888;BME280;3989;48.810;9.208;2023-04-01T06:11:55;97389.09;;;9.03;100.00
7888;BME280;3989;48.810;9.208;2023-04-01T06:14:36;97380.72;;;9.19;100.00
7888;BME280;3989;48.810;9.208;2023-04-01T06:17:17;97383.78;;;9.23;100.00
7888;BME280;3989;48.810;9.208;2023-04-01T06:19:50;97388.50;;;9.34;100.00
7888;BME280;3989;48.810;9.208;2023-04-01T06:23:07;97374.16;;;9.41;100.00
7888;BME280;3989;48.810;9.208;2023-04-01T06:25:53;97367.41;;;9.39;100.00
7888;BME280;3989;48.810;9.208;2023-04-01T06:28:48;97389.31;;;9.61;100.00
7888;BME280;3989;48.810;9.208;2023-04-01T06:31:36;97372.31;;;9.55;100.00
7888;BME280;3989;48.810;9.208;2023-04-01T06:34:20;97380.69;;;9.85;100.00
7888;BME280;3989;48.810;9.208;2023-04-01T06:37:07;97394.00;;;9.98;100.00
7888;BME280;3989;48.810;9.208;2023-04-01T06:39:57;97393.97;;;10.05;100.00
7888;BME280;3989;48.810;9.208;2023-04-01T06:42:50;97375.94;;;9.93;100.00
7888;BME280;3989;48.810;9.208;2023-04-01T06:45:30;97365.72;;;9.84;100.00
7888;BME280;3989;48.810;9.208;2023-04-01T06:48:10;97392.31;;;10.03;100.00
7888;BME280;3989;48.810;9.208;2023-04-01T06:50:47;97382.50;;;9.97;100.00
7888;BME280;3989;48.810;9.208;2023-04-01T06:53:18;97388.84;;;10.16;100.00
7888;BME280;3989;48.810;9.208;2023-04-01T06:55:53;97397.00;;;10.21;100.00
7888;BME280;3989;48.810;9.208;2023-04-01T06:58:24;97386.56;;;10.26;100.00
7888;BME280;3989;48.810;9.208;2023-04-01T07:00:54;97351.50;;;10.16;100.00
7888;BME280;3989;48.810;9.208;2023-04-01T07:03:30;97372.50;;;10.44;100.00
7888;BME280;3989;48.810;9.208;2023-04-01T07:06:02;97397.47;;;10.69;100.00
7888;BME280;3989;48.810;9.208;2023-04-01T07:08:31;97392.69;;;10.78;100.00
7888;BME280;3989;48.810;9.208;2023-04-01T07:11:03;97380.06;;;10.53;100.00
7888;BME280;3989;48.810;9.208;2023-04-01T07:13:34;97383.53;;;10.61;100.00
7888;BME280;3989;48.810;9.208;2023-04-01T07:16:11;97364.53;;;10.37;100.00
7888;BME280;3989;48.810;9.208;2023-04-01T07:18:42;97403.97;;;10.73;100.00
7888;BME280;3989;48.810;9.208;2023-04-01T07:21:25;97242.59;;;9.75;100.00
7888;BME280;3989;48.810;9.208;2023-04-01T07:23:56;97278.81;;;9.83;100.00
7888;BME280;3989;48.810;9.208;2023-04-01T07:26:27;97290.94;;;9.79;100.00
7888;BME280;3989;48.810;9.208;2023-04-01T07:28:53;97392.44;;;10.41;100.00
7888;BME280;3989;48.810;9.208;2023-04-01T07:31:29;97268.63;;;9.67;100.00
7888;BME280;3989;48.810;9.208;2023-04-01T07:34:04;97364.66;;;10.18;100.00
7888;BME280;3989;48.810;9.208;2023-04-01T07:36:38;97340.47;;;9.99;100.00
7888;BME280;3989;48.810;9.208;2023-04-01T07:39:14;97410.47;;;10.46;100.00
7888;BME280;3989;48.810;9.208;2023-04-01T07:41:51;97422.38;;;10.50;100.00
7888;BME280;3989;48.810;9.208;2023-04-01T07:44:27;97385.09;;;10.30;100.00
7888;BME280;3989;48.810;9.208;2023-04-01T07:47:08;97321.84;;;9.93;100.00
7888;BME280;3989;48.810;9.208;2023-04-01T07:49:45;97373.63;;;10.30;100.00
7888;BME280;3989;48.810;9.208;2023-04-01T07:52:19;97424.34;;;10.61;100.00
7888;BME280;3989;48.810;9.208;2023-04-01T07:54:55;97400.59;;;10.60;100.00
7888;BME280;3989;48.810;9.208;2023-04-01T07:57:30;97397.47;;;10.69;100.00
7888;BME280;3989;48.810;9.208;2023-04-01T08:00:06;97423.16;;;11.01;100.00
7888;BME280;3989;48.810;9.208;2023-04-01T08:02:44;97382.38;;;10.88;100.00
7888;BME280;3989;48.810;9.208;2023-04-01T08:05:22;97354.56;;;10.64;100.00
7888;BME280;3989;48.810;9.208;2023-04-01T08:08:01;97378.28;;;10.85;100.00
7888;BME280;3989;48.810;9.208;2023-04-01T08:10:36;97378.88;;;10.87;100.00
7888;BME280;3989;48.810;9.208;2023-04-01T08:13:15;97423.00;;;11.21;100.00
7888;BME280;3989;48.810;9.208;2023-04-01T08:15:49;97420.25;;;11.34;100.00
7888;BME280;3989;48.810;9.208;2023-04-01T08:18:28;97227.22;;;10.22;100.00
7888;BME280;3989;48.810;9.208;2023-04-01T08:21:02;97318.75;;;10.85;100.00
7888;BME280;3989;48.810;9.208;2023-04-01T08:23:31;97429.03;;;11.41;100.00
7888;BME280;3989;48.810;9.208;2023-04-01T08:26:03;97411.94;;;11.49;100.00
7888;BME280;3989;48.810;9.208;2023-04-01T08:28:37;97363.19;;;11.29;100.00
7888;BME280;3989;48.810;9.208;2023-04-01T08:31:05;97407.78;;;11.53;100.00
7888;BME280;3989;48.810;9.208;2023-04-01T08:33:35;97151.56;;;9.85;100.00
7888;BME280;3989;48.810;9.208;2023-04-01T08:36:06;97431.16;;;11.57;100.00
7888;BME280;3989;48.810;9.208;2023-04-01T08:38:39;97420.56;;;11.44;100.00
7888;BME280;3989;48.810;9.208;2023-04-01T08:41:33;97428.41;;;11.15;100.00
7888;BME280;3989;48.810;9.208;2023-04-01T08:44:23;97423.59;;;10.47;100.00
7888;BME280;3989;48.810;9.208;2023-04-01T08:47:13;97415.91;;;9.93;100.00
7888;BME280;3989;48.810;9.208;2023-04-01T08:52:37;97446.88;;;9.55;100.00
7888;BME280;3989;48.810;9.208;2023-04-01T08:55:36;97402.84;;;9.20;100.00
7888;BME280;3989;48.810;9.208;2023-04-01T08:58:42;97426.00;;;9.45;100.00
7888;BME280;3989;48.810;9.208;2023-04-01T09:01:23;97316.78;;;8.54;100.00
7888;BME280;3989;48.810;9.208;2023-04-01T09:04:19;97437.03;;;9.29;100.00
7888;BME280;3989;48.810;9.208;2023-04-01T09:06:58;97452.63;;;9.39;100.00
7888;BME280;3989;48.810;9.208;2023-04-01T09:09:54;97418.81;;;9.20;100.00
7888;BME280;3989;48.810;9.208;2023-04-01T09:12:44;97428.66;;;9.32;100.00
7888;BME280;3989;48.810;9.208;2023-04-01T09:18:34;97440.75;;;9.68;100.00
7888;BME280;3989;48.810;9.208;2023-04-01T09:21:22;97436.00;;;9.96;100.00
7888;BME280;3989;48.810;9.208;2023-04-01T09:24:14;97412.41;;;9.99;100.00
7888;BME280;3989;48.810;9.208;2023-04-01T09:27:03;97363.00;;;10.10;100.00
7888;BME280;3989;48.810;9.208;2023-04-01T09:29:51;97351.69;;;10.21;100.00
7888;BME280;3989;48.810;9.208;2023-04-01T09:32:49;97428.44;;;11.08;100.00
7888;BME280;3989;48.810;9.208;2023-04-01T09:35:25;97420.09;;;11.29;100.00
7888;BME280;3989;48.810;9.208;2023-04-01T09:38:11;97412.50;;;11.26;100.00
7888;BME280;3989;48.810;9.208;2023-04-01T09:40:53;97442.00;;;11.38;100.00
7888;BME280;3989;48.810;9.208;2023-04-01T09:43:26;97434.38;;;11.10;100.00
7888;BME280;3989;48.810;9.208;2023-04-01T09:46:02;97410.94;;;10.81;100.00
7888;BME280;3989;48.810;9.208;2023-04-01T09:48:45;97451.06;;;10.99;100.00
7888;BME280;3989;48.810;9.208;2023-04-01T09:51:25;97464.03;;;10.89;100.00
7888;BME280;3989;48.810;9.208;2023-04-01T09:54:04;97406.59;;;10.42;100.00
7888;BME280;3989;48.810;9.208;2023-04-01T09:57:16;97466.59;;;10.71;100.00
7888;BME280;3989;48.810;9.208;2023-04-01T10:00:20;97447.72;;;10.72;100.00
7888;BME280;3989;48.810;9.208;2023-04-01T10:09:43;97465.66;;;10.96;100.00
7888;BME280;3989;48.810;9.208;2023-04-01T10:15:40;97468.53;;;11.01;100.00
7888;BME280;3989;48.810;9.208;2023-04-01T10:21:34;97460.72;;;11.31;100.00
7888;BME280;3989;48.810;9.208;2023-04-01T10:33:59;97464.13;;;11.76;100.00
7888;BME280;3989;48.810;9.208;2023-04-01T10:36:48;97453.53;;;11.32;100.00
7888;BME280;3989;48.810;9.208;2023-04-01T10:39:33;97395.91;;;10.86;100.00
7888;BME280;3989;48.810;9.208;2023-04-01T10:42:19;97443.34;;;10.84;100.00
7888;BME280;3989;48.810;9.208;2023-04-01T10:51:16;97453.84;;;11.17;100.00
7888;BME280;3989;48.810;9.208;2023-04-01T10:54:11;97454.44;;;11.19;100.00
7888;BME280;3989;48.810;9.208;2023-04-01T10:56:50;97463.91;;;11.15;100.00
7888;BME280;3989;48.810;9.208;2023-04-01T11:02:51;97469.13;;;11.35;100.00
7888;BME280;3989;48.810;9.208;2023-04-01T11:08:54;97428.09;;;11.29;100.00
7888;BME280;3989;48.810;9.208;2023-04-01T11:15:06;97463.03;;;12.08;100.00
7888;BME280;3989;48.810;9.208;2023-04-01T11:18:15;97423.81;;;12.02;100.00
7888;BME280;3989;48.810;9.208;2023-04-01T11:24:03;97431.84;;;12.75;100.00
7888;BME280;3989;48.810;9.208;2023-04-01T11:26:44;97410.06;;;12.72;100.00
7888;BME280;3989;48.810;9.208;2023-04-01T11:29:27;97475.75;;;13.22;100.00
7888;BME280;3989;48.810;9.208;2023-04-01T11:32:04;97433.22;;;13.14;100.00
7888;BME280;3989;48.810;9.208;2023-04-01T11:34:52;97452.84;;;13.26;100.00
7888;BME280;3989;48.810;9.208;2023-04-01T11:37:32;97470.38;;;13.52;97.17
7888;BME280;3989;48.810;9.208;2023-04-01T11:40:11;97469.53;;;13.81;90.78
7888;BME280;3989;48.810;9.208;2023-04-01T11:42:43;97468.03;;;14.08;89.04
7888;BME280;3989;48.810;9.208;2023-04-01T11:45:20;97481.84;;;14.47;82.80
7888;BME280;3989;48.810;9.208;2023-04-01T11:50:50;97463.28;;;14.34;73.06
7888;BME280;3989;48.810;9.208;2023-04-01T11:53:27;97483.34;;;14.43;79.76
7888;BME280;3989;48.810;9.208;2023-04-01T11:56:02;97494.28;;;14.64;77.05
7888;BME280;3989;48.810;9.208;2023-04-01T11:58:52;97497.25;;;14.40;82.33
7888;BME280;3989;48.810;9.208;2023-04-01T12:01:25;97434.56;;;13.35;84.37
7888;BME280;3989;48.810;9.208;2023-04-01T12:04:23;97377.47;;;12.45;92.10
7888;BME280;3989;48.810;9.208;2023-04-01T12:07:02;97507.53;;;13.00;97.17
7888;BME280;3989;48.810;9.208;2023-04-01T12:09:37;97302.66;;;11.41;99.45
7888;BME280;3989;48.810;9.208;2023-04-01T12:12:16;97481.81;;;12.45;100.00
7888;BME280;3989;48.810;9.208;2023-04-01T12:14:50;97508.94;;;12.67;100.00
7888;BME280;3989;48.810;9.208;2023-04-01T12:17:29;97484.78;;;12.37;100.00
7888;BME280;3989;48.810;9.208;2023-04-01T12:20:15;97510.78;;;12.30;100.00
7888;BME280;3989;48.810;9.208;2023-04-01T12:22:50;97438.91;;;11.72;100.00
7888;BME280;3989;48.810;9.208;2023-04-01T12:25:31;97509.28;;;11.91;100.00
7888;BME280;3989;48.810;9.208;2023-04-01T12:28:11;97429.81;;;11.17;100.00
7888;BME280;3989;48.810;9.208;2023-04-01T12:30:48;97515.53;;;11.47;100.00
7888;BME280;3989;48.810;9.208;2023-04-01T12:33:32;97471.38;;;11.38;100.00
7888;BME280;3989;48.810;9.208;2023-04-01T12:36:13;97514.19;;;11.94;100.00
7888;BME280;3989;48.810;9.208;2023-04-01T12:38:51;97512.16;;;12.14;100.00
7888;BME280;3989;48.810;9.208;2023-04-01T12:41:32;97507.19;;;12.18;100.00
7888;BME280;3989;48.810;9.208;2023-04-01T12:44:17;97422.69;;;11.92;100.00
7888;BME280;3989;48.810;9.208;2023-04-01T12:47:00;97511.28;;;12.81;100.00
7888;BME280;3989;48.810;9.208;2023-04-01T12:49:52;97462.56;;;12.54;100.00
7888;BME280;3989;48.810;9.208;2023-04-01T12:52:26;97512.97;;;12.94;100.00
7888;BME280;3989;48.810;9.208;2023-04-01T12:55:27;97502.72;;;12.91;96.98
7888;BME280;3989;48.810;9.208;2023-04-01T13:01:10;97493.25;;;12.70;96.03
7888;BME280;3989;48.810;9.208;2023-04-01T13:03:52;97524.34;;;12.89;95.35
7888;BME280;3989;48.810;9.208;2023-04-01T13:06:32;97528.75;;;12.84;95.14
7888;BME280;3989;48.810;9.208;2023-04-01T13:09:16;97517.00;;;12.85;94.95
7888;BME280;3989;48.810;9.208;2023-04-01T13:12:00;97529.78;;;13.01;97.56
7888;BME280;3989;48.810;9.208;2023-04-01T13:14:54;97533.72;;;12.80;99.08
7888;BME280;3989;48.810;9.208;2023-04-01T13:17:32;97544.03;;;12.58;100.00
7888;BME280;3989;48.810;9.208;2023-04-01T13:20:04;97502.88;;;12.17;100.00
7888;BME280;3989;48.810;9.208;2023-04-01T13:22:48;97537.47;;;12.36;100.00
7888;BME280;3989;48.810;9.208;2023-04-01T13:25:24;97527.34;;;12.38;100.00
7888;BME280;3989;48.810;9.208;2023-04-01T13:27:56;97522.19;;;12.43;96.40
7888;BME280;3989;48.810;9.208;2023-04-01T13:30:30;97509.91;;;12.90;95.30
7888;BME280;3989;48.810;9.208;2023-04-01T13:33:03;97510.94;;;13.26;85.75
7888;BME280;3989;48.810;9.208;2023-04-01T13:35:39;97527.19;;;13.31;84.79
7888;BME280;3989;48.810;9.208;2023-04-01T13:38:30;97476.00;;;12.84;86.38
7888;BME280;3989;48.810;9.208;2023-04-01T13:41:05;97558.41;;;13.37;88.63
7888;BME280;3989;48.810;9.208;2023-04-01T13:43:35;97540.56;;;13.31;86.35
7888;BME280;3989;48.810;9.208;2023-04-01T13:46:12;97561.84;;;13.44;86.17
7888;BME280;3989;48.810;9.208;2023-04-01T13:49:00;97541.59;;;12.93;85.58
7888;BME280;3989;48.810;9.208;2023-04-01T13:51:47;97568.75;;;12.79;89.17
7888;BME280;3989;48.810;9.208;2023-04-01T13:57:30;97495.06;;;12.58;88.06
7888;BME280;3989;48.810;9.208;2023-04-01T14:00:19;97563.63;;;12.95;88.66
7888;BME280;3989;48.810;9.208;2023-04-01T14:06:09;97555.25;;;13.10;93.21
7888;BME280;3989;48.810;9.208;2023-04-01T14:08:52;97561.19;;;13.12;95.23
7888;BME280;3989;48.810;9.208;2023-04-01T14:11:28;97568.53;;;12.98;93.32
7888;BME280;3989;48.810;9.208;2023-04-01T14:14:05;97578.25;;;12.75;96.18
7888;BME280;3989;48.810;9.208;2023-04-01T14:22:38;97576.06;;;13.08;89.21
7888;BME280;3989;48.810;9.208;2023-04-01T14:25:26;97518.38;;;12.51;91.05
7888;BME280;3989;48.810;9.208;2023-04-01T14:28:03;97550.44;;;12.57;95.29
7888;BME280;3989;48.810;9.208;2023-04-01T14:30:45;97556.16;;;12.61;97.05
7888;BME280;3989;48.810;9.208;2023-04-01T14:33:25;97514.28;;;12.30;99.32
7888;BME280;3989;48.810;9.208;2023-04-01T14:36:04;97573.94;;;12.31;100.00
7888;BME280;3989;48.810;9.208;2023-04-01T14:38:47;97594.84;;;11.84;100.00
7888;BME280;3989;48.810;9.208;2023-04-01T14:41:20;97577.72;;;11.54;100.00
7888;BME280;3989;48.810;9.208;2023-04-01T14:47:23;97588.44;;;11.47;100.00
7888;BME280;3989;48.810;9.208;2023-04-01T14:49:52;97554.00;;;11.33;100.00
7888;BME280;3989;48.810;9.208;2023-04-01T14:52:26;97582.41;;;11.65;100.00
7888;BME280;3989;48.810;9.208;2023-04-01T14:54:54;97535.28;;;11.39;100.00
7888;BME280;3989;48.810;9.208;2023-04-01T14:57:24;97549.97;;;11.55;100.00
7888;BME280;3989;48.810;9.208;2023-04-01T14:59:53;97567.34;;;11.77;100.00
7888;BME280;3989;48.810;9.208;2023-04-01T15:02:33;97575.66;;;11.94;100.00
7888;BME280;3989;48.810;9.208;2023-04-01T15:05:10;97586.81;;;12.16;100.00
7888;BME280;3989;48.810;9.208;2023-04-01T15:08:00;97588.75;;;12.33;100.00
7888;BME280;3989;48.810;9.208;2023-04-01T15:10:45;97585.84;;;12.59;100.00
7888;BME280;3989;48.810;9.208;2023-04-01T15:13:22;97563.16;;;12.62;100.00